createdAt,value
2022-09-25T00:00:51.133Z,87.24
2022-09-25T00:03:19.081Z,86.54
2022-09-25T00:05:46.748Z,86.08
2022-09-25T00:08:15.222Z,85.44
2022-09-25T00:10:43.493Z,85.54
2022-09-25T00:13:10.702Z,85.03
2022-09-25T00:15:38.192Z,84.93
2022-09-25T00:18:05.039Z,85.11
2022-09-25T00:20:31.805Z,85.47
2022-09-25T00:23:01.549Z,85.06
2022-09-25T00:25:28.800Z,84.54
2022-09-25T00:27:56.412Z,84.17
2022-09-25T00:30:23.957Z,83.98
2022-09-25T00:32:50.893Z,82.86
2022-09-25T00:35:17.621Z,82.31
2022-09-25T00:37:44.381Z,81.85
2022-09-25T00:40:11.344Z,81.59
2022-09-25T00:42:38.208Z,80.89
2022-09-25T00:45:16.453Z,81.02
2022-09-25T00:47:52.041Z,80.25
2022-09-25T00:50:24.541Z,79.70
2022-09-25T00:52:54.690Z,79.77
2022-09-25T00:55:24.129Z,80.17
2022-09-25T00:57:54.068Z,80.70
2022-09-25T01:00:20.799Z,80.83
2022-09-25T01:02:54.036Z,81.58
2022-09-25T01:05:28.669Z,81.89
2022-09-25T01:07:59.253Z,80.46
2022-09-25T01:10:26.118Z,80.62
2022-09-25T01:12:54.494Z,81.37
2022-09-25T01:15:35.292Z,82.34
2022-09-25T01:18:27.480Z,81.57
2022-09-25T01:21:15.984Z,81.97
2022-09-25T01:23:54.866Z,82.60
2022-09-25T01:26:40.079Z,82.67
2022-09-25T01:29:20.446Z,81.56
2022-09-25T01:32:04.072Z,82.01
2022-09-25T01:34:39.736Z,81.75
2022-09-25T01:37:18.876Z,82.44
2022-09-25T01:40:14.769Z,82.03
2022-09-25T01:42:52.417Z,82.30
2022-09-25T01:45:28.260Z,80.76
2022-09-25T01:47:59.927Z,80.74
2022-09-25T01:50:45.149Z,80.40
2022-09-25T01:53:18.464Z,80.05
2022-09-25T01:55:53.817Z,78.97
2022-09-25T01:58:32.726Z,79.90
2022-09-25T02:01:08.719Z,80.42
2022-09-25T02:03:44.251Z,80.41
2022-09-25T02:06:17.623Z,80.04
2022-09-25T02:08:54.086Z,79.61
2022-09-25T02:11:21.329Z,79.32
2022-09-25T02:13:49.723Z,80.09
2022-09-25T02:16:24.774Z,80.20
2022-09-25T02:19:10.444Z,80.38
2022-09-25T02:21:52.000Z,79.82
2022-09-25T02:24:26.645Z,80.15
2022-09-25T02:26:53.553Z,79.71
2022-09-25T02:29:20.553Z,80.12
2022-09-25T02:31:55.526Z,80.39
2022-09-25T02:34:23.276Z,80.44
2022-09-25T02:36:50.578Z,79.74
2022-09-25T02:39:20.759Z,79.94
2022-09-25T02:41:56.703Z,80.60
2022-09-25T02:44:39.992Z,79.84
2022-09-25T02:47:25.560Z,78.66
2022-09-25T02:50:23.383Z,79.26
2022-09-25T02:52:59.264Z,79.50
2022-09-25T02:55:48.930Z,80.28
2022-09-25T02:58:22.497Z,81.00
2022-09-25T03:00:52.318Z,80.22
2022-09-25T03:03:21.440Z,80.49
2022-09-25T03:05:49.951Z,80.12
2022-09-25T03:08:35.901Z,80.60
2022-09-25T03:11:02.903Z,80.93
2022-09-25T03:13:34.255Z,81.13
2022-09-25T03:16:16.244Z,80.03
2022-09-25T03:18:43.230Z,80.53
2022-09-25T03:21:10.516Z,80.64
2022-09-25T03:23:37.304Z,81.58
2022-09-25T03:26:04.827Z,80.59
2022-09-25T03:28:32.294Z,80.79
2022-09-25T03:31:01.080Z,80.65
2022-09-25T03:33:35.976Z,81.20
2022-09-25T03:36:13.368Z,81.86
2022-09-25T03:38:41.423Z,81.81
2022-09-25T03:41:10.252Z,81.77
2022-09-25T03:43:38.479Z,82.52
2022-09-25T03:46:07.208Z,83.65
2022-09-25T03:48:34.457Z,83.96
2022-09-25T03:51:01.479Z,84.17
2022-09-25T03:53:33.594Z,84.92
2022-09-25T03:56:01.558Z,85.97
2022-09-25T03:58:28.263Z,87.19
2022-09-25T04:00:57.582Z,88.57
2022-09-25T04:03:28.136Z,90.02
2022-09-25T04:05:56.392Z,90.65
2022-09-25T04:08:25.624Z,90.73
2022-09-25T04:11:02.029Z,91.84
2022-09-25T04:13:31.631Z,92.16
2022-09-25T04:16:01.316Z,92.82
2022-09-25T04:18:31.948Z,93.55
2022-09-25T04:21:04.709Z,93.37
2022-09-25T04:23:32.112Z,94.94
2022-09-25T04:25:59.167Z,95.17
2022-09-25T04:28:26.943Z,95.73
2022-09-25T04:30:53.684Z,97.42
2022-09-25T04:33:39.042Z,99.03
2022-09-25T04:36:05.982Z,100.00
2022-09-25T04:38:32.788Z,100.00
2022-09-25T04:41:00.321Z,100.00
2022-09-25T04:43:31.228Z,100.00
2022-09-25T04:46:02.542Z,100.00
2022-09-25T04:48:30.065Z,100.00
2022-09-25T04:50:58.338Z,100.00
2022-09-25T04:53:30.199Z,100.00
2022-09-25T04:56:13.868Z,100.00
2022-09-25T04:58:46.306Z,100.00
2022-09-25T05:01:13.217Z,100.00
2022-09-25T05:03:40.044Z,100.00
2022-09-25T05:06:07.084Z,100.00
2022-09-25T05:08:34.198Z,100.00
2022-09-25T05:11:01.005Z,100.00
2022-09-25T05:13:28.377Z,100.00
2022-09-25T05:15:56.546Z,100.00
2022-09-25T05:18:24.373Z,100.00
2022-09-25T05:20:53.608Z,100.00
2022-09-25T05:23:21.418Z,100.00
2022-09-25T05:25:55.502Z,100.00
2022-09-25T05:28:23.617Z,100.00
2022-09-25T05:30:50.932Z,100.00
2022-09-25T05:33:19.258Z,100.00
2022-09-25T05:35:46.199Z,100.00
2022-09-25T05:38:12.934Z,100.00
2022-09-25T05:40:39.815Z,100.00
2022-09-25T05:43:07.155Z,100.00
2022-09-25T05:45:35.864Z,100.00
2022-09-25T05:48:04.906Z,100.00
2022-09-25T05:50:34.929Z,100.00
2022-09-25T05:53:04.518Z,100.00
2022-09-25T05:55:32.191Z,100.00
2022-09-25T05:58:05.212Z,100.00
2022-09-25T06:00:33.247Z,100.00
2022-09-25T06:03:01.628Z,100.00
2022-09-25T06:05:28.686Z,100.00
2022-09-25T06:07:56.307Z,100.00
2022-09-25T06:10:26.219Z,100.00
2022-09-25T06:12:58.950Z,100.00
2022-09-25T06:15:43.929Z,100.00
2022-09-25T06:18:10.700Z,100.00
2022-09-25T06:20:37.838Z,98.84
2022-09-25T06:23:04.750Z,99.00
2022-09-25T06:25:36.647Z,99.08
2022-09-25T06:28:04.237Z,97.38
2022-09-25T06:30:36.969Z,96.15
2022-09-25T06:33:07.467Z,96.11
2022-09-25T06:35:36.979Z,95.34
2022-09-25T06:38:05.008Z,93.74
2022-09-25T06:40:32.373Z,92.91
2022-09-25T06:43:02.879Z,90.62
2022-09-25T06:45:34.014Z,89.88
2022-09-25T06:48:05.587Z,89.12
2022-09-25T06:50:36.734Z,88.33
2022-09-25T06:53:03.614Z,87.62
2022-09-25T06:55:32.791Z,86.07
2022-09-25T06:57:59.508Z,86.05
2022-09-25T07:00:26.415Z,84.66
2022-09-25T07:03:11.615Z,86.10
2022-09-25T07:05:38.385Z,85.98
2022-09-25T07:08:05.135Z,84.80
2022-09-25T07:10:31.828Z,85.89
2022-09-25T07:12:59.207Z,85.28
2022-09-25T07:15:26.377Z,83.18
2022-09-25T07:17:53.119Z,82.79
2022-09-25T07:20:21.917Z,81.90
2022-09-25T07:22:48.720Z,82.05
2022-09-25T07:25:15.507Z,82.01
2022-09-25T07:27:42.222Z,81.95
2022-09-25T07:30:09.766Z,81.25
2022-09-25T07:32:36.586Z,81.64
2022-09-25T07:35:03.481Z,80.36
2022-09-25T07:37:31.475Z,80.75
2022-09-25T07:39:58.217Z,80.20
2022-09-25T07:42:24.962Z,80.54
2022-09-25T07:44:51.977Z,80.19
2022-09-25T07:47:19.734Z,78.85
2022-09-25T07:49:47.323Z,78.67
2022-09-25T07:52:14.541Z,77.27
2022-09-25T07:54:41.306Z,77.29
2022-09-25T07:57:08.019Z,78.17
2022-09-25T07:59:34.739Z,79.03
2022-09-25T08:02:03.218Z,78.90
2022-09-25T08:04:29.984Z,79.85
2022-09-25T08:06:59.559Z,80.53
2022-09-25T08:09:26.268Z,78.86
2022-09-25T08:11:53.211Z,77.51
2022-09-25T08:14:24.520Z,77.13
2022-09-25T08:16:56.125Z,77.26
2022-09-25T08:19:23.643Z,78.63
2022-09-25T08:21:50.807Z,77.55
2022-09-25T08:24:17.612Z,78.32
2022-09-25T08:26:44.401Z,79.45
2022-09-25T08:29:14.824Z,78.77
2022-09-25T08:31:41.586Z,79.07
2022-09-25T08:34:36.229Z,79.43
2022-09-25T08:36:58.172Z,79.17
2022-09-25T08:39:24.896Z,78.73
2022-09-25T08:41:55.588Z,79.78
2022-09-25T08:45:02.778Z,78.87
2022-09-25T08:47:54.114Z,78.02
2022-09-25T08:50:23.860Z,77.15
2022-09-25T08:53:06.046Z,76.48
2022-09-25T08:55:54.047Z,76.21
2022-09-25T08:58:26.675Z,76.15
2022-09-25T09:00:56.145Z,74.50
2022-09-25T09:03:26.136Z,74.49
2022-09-25T09:06:03.577Z,74.18
2022-09-25T09:08:33.866Z,74.76
2022-09-25T09:11:13.777Z,74.14
2022-09-25T09:13:45.150Z,73.44
2022-09-25T09:16:37.803Z,72.52
2022-09-25T09:19:06.892Z,73.89
2022-09-25T09:21:45.089Z,74.73
2022-09-25T09:24:19.909Z,76.24
2022-09-25T09:27:11.495Z,76.59
2022-09-25T09:29:40.859Z,76.88
2022-09-25T09:32:40.039Z,77.31
2022-09-25T09:35:28.646Z,77.18
2022-09-25T09:38:28.477Z,78.14
2022-09-25T09:41:18.880Z,79.12
2022-09-25T09:43:57.594Z,78.80
2022-09-25T09:46:59.353Z,78.06
2022-09-25T09:49:34.566Z,80.44
2022-09-25T09:52:09.763Z,79.90
2022-09-25T09:54:51.503Z,81.76
2022-09-25T09:57:27.514Z,80.68
2022-09-25T10:00:04.645Z,80.86
2022-09-25T10:02:41.459Z,79.05
2022-09-25T10:05:23.661Z,79.48
2022-09-25T10:07:51.689Z,80.49
2022-09-25T10:10:19.674Z,79.88
2022-09-25T10:12:52.150Z,78.65
2022-09-25T10:15:33.223Z,78.06
2022-09-25T10:18:02.008Z,77.62
2022-09-25T10:20:42.947Z,76.79
2022-09-25T10:23:22.021Z,77.33
2022-09-25T10:25:52.514Z,77.72
2022-09-25T10:28:36.119Z,77.51
2022-09-25T10:31:06.386Z,77.42
2022-09-25T10:33:33.339Z,77.59
2022-09-25T10:36:00.617Z,77.63
2022-09-25T10:38:48.480Z,76.59
2022-09-25T10:41:20.107Z,76.20
2022-09-25T10:44:01.450Z,76.35
2022-09-25T10:46:48.074Z,75.27
2022-09-25T10:49:37.498Z,76.00
2022-09-25T10:52:07.246Z,74.67
2022-09-25T10:54:38.995Z,73.55
2022-09-25T10:57:17.423Z,74.79
2022-09-25T10:59:52.282Z,74.39
2022-09-25T11:02:40.424Z,74.72
2022-09-25T11:05:20.084Z,75.27
2022-09-25T11:07:59.699Z,73.50
2022-09-25T11:10:37.147Z,75.52
2022-09-25T11:13:10.201Z,71.47
2022-09-25T11:15:39.322Z,71.24
2022-09-25T11:18:08.111Z,70.46
2022-09-25T11:20:37.210Z,70.68
2022-09-25T11:23:16.582Z,66.51
2022-09-25T11:26:14.637Z,66.70
2022-09-25T11:28:57.844Z,65.02
2022-09-25T11:31:35.939Z,64.61
2022-09-25T11:34:21.301Z,65.19
2022-09-25T11:37:18.572Z,65.60
2022-09-25T11:40:08.509Z,66.12
2022-09-25T11:42:44.246Z,66.64
2022-09-25T11:45:24.458Z,63.40
2022-09-25T11:48:05.502Z,64.64
2022-09-25T11:50:44.482Z,62.98
2022-09-25T11:53:51.406Z,62.21
2022-09-25T11:56:33.515Z,61.97
2022-09-25T11:59:15.811Z,62.48
2022-09-25T12:01:48.605Z,63.43
2022-09-25T12:04:36.989Z,64.12
2022-09-25T12:07:22.541Z,66.78
2022-09-25T12:10:36.795Z,64.31
2022-09-25T12:13:06.253Z,62.75
2022-09-25T12:15:53.489Z,63.85
2022-09-25T12:18:22.856Z,64.03
2022-09-25T12:20:53.071Z,63.69
2022-09-25T12:23:34.003Z,63.25
2022-09-25T12:26:12.633Z,64.08
2022-09-25T12:28:57.698Z,66.00
2022-09-25T12:31:27.799Z,65.73
2022-09-25T12:34:26.953Z,66.35
2022-09-25T12:37:23.088Z,67.75
2022-09-25T12:39:59.550Z,67.02
2022-09-25T12:42:52.494Z,67.40
2022-09-25T12:45:43.825Z,72.18
2022-09-25T12:48:10.543Z,70.29
2022-09-25T12:50:51.423Z,70.33
2022-09-25T12:53:40.176Z,67.89
2022-09-25T12:56:42.289Z,67.91
2022-09-25T12:59:19.699Z,69.76
2022-09-25T13:02:07.786Z,67.68
2022-09-25T13:04:54.117Z,66.83
2022-09-25T13:07:46.079Z,65.71
2022-09-25T13:10:53.600Z,65.85
2022-09-25T13:13:25.058Z,67.19
2022-09-25T13:15:55.989Z,68.56
2022-09-25T13:18:25.332Z,66.75
2022-09-25T13:20:53.294Z,68.54
2022-09-25T13:23:24.360Z,68.82
2022-09-25T13:26:00.660Z,68.85
2022-09-25T13:28:34.484Z,67.06
2022-09-25T13:31:12.397Z,68.03
2022-09-25T13:33:47.312Z,68.68
2022-09-25T13:36:24.571Z,67.89
2022-09-25T13:39:16.059Z,68.76
2022-09-25T13:41:49.478Z,67.71
2022-09-25T13:44:42.315Z,67.93
2022-09-25T13:47:33.792Z,68.25
2022-09-25T13:50:16.810Z,69.66
2022-09-25T13:52:43.470Z,69.17
2022-09-25T13:55:13.189Z,68.58
2022-09-25T13:58:01.960Z,69.64
2022-09-25T14:00:37.516Z,70.24
2022-09-25T14:03:05.364Z,71.32
2022-09-25T14:05:36.315Z,71.02
2022-09-25T14:08:08.606Z,71.55
2022-09-25T14:10:36.127Z,71.64
2022-09-25T14:13:06.886Z,71.89
2022-09-25T14:15:38.028Z,70.49
2022-09-25T14:18:09.755Z,70.89
2022-09-25T14:20:40.867Z,71.16
2022-09-25T14:23:14.160Z,70.89
2022-09-25T14:25:44.838Z,70.14
2022-09-25T14:28:32.833Z,71.93
2022-09-25T14:31:18.461Z,72.11
2022-09-25T14:33:48.068Z,72.24
2022-09-25T14:36:22.476Z,72.56
2022-09-25T14:39:01.702Z,72.21
2022-09-25T14:41:43.458Z,72.46
2022-09-25T14:44:44.826Z,72.34
2022-09-25T14:47:15.110Z,72.20
2022-09-25T14:49:46.706Z,71.18
2022-09-25T14:52:21.823Z,71.61
2022-09-25T14:54:50.883Z,72.61
2022-09-25T14:57:25.747Z,73.00
2022-09-25T14:59:57.076Z,73.39
2022-09-25T15:02:32.754Z,73.81
2022-09-25T15:05:17.239Z,74.55
2022-09-25T15:07:45.225Z,74.82
2022-09-25T15:10:41.288Z,75.85
2022-09-25T15:13:16.154Z,76.24
2022-09-25T15:16:05.934Z,77.10
2022-09-25T15:18:36.386Z,76.62
2022-09-25T15:21:03.178Z,76.69
2022-09-25T15:23:34.993Z,76.79
2022-09-25T15:26:02.080Z,76.78
2022-09-25T15:28:28.949Z,78.00
2022-09-25T15:31:00.940Z,77.62
2022-09-25T15:33:34.177Z,77.76
2022-09-25T15:36:23.381Z,77.82
2022-09-25T15:38:58.395Z,79.20
2022-09-25T15:41:25.122Z,81.22
2022-09-25T15:43:53.555Z,82.55
2022-09-25T15:46:51.475Z,82.65
2022-09-25T15:49:36.839Z,82.81
2022-09-25T15:52:06.805Z,82.40
2022-09-25T15:54:39.478Z,82.54
2022-09-25T15:57:14.204Z,82.50
2022-09-25T16:00:06.345Z,82.54
2022-09-25T16:03:20.218Z,82.23
2022-09-25T16:05:49.933Z,82.46
2022-09-25T16:08:29.543Z,81.77
2022-09-25T16:11:17.464Z,81.94
2022-09-25T16:13:48.817Z,80.63
2022-09-25T16:16:19.664Z,80.89
2022-09-25T16:18:47.010Z,80.38
2022-09-25T16:21:24.322Z,79.32
2022-09-25T16:24:00.155Z,79.83
2022-09-25T16:26:36.254Z,79.88
2022-09-25T16:29:05.964Z,79.60
2022-09-25T16:31:36.586Z,80.14
2022-09-25T16:34:04.872Z,80.25
2022-09-25T16:36:43.628Z,79.90
2022-09-25T16:39:10.375Z,79.89
2022-09-25T16:41:39.329Z,79.88
2022-09-25T16:44:36.667Z,79.44
2022-09-25T16:47:21.683Z,79.93
2022-09-25T16:49:49.582Z,79.93
2022-09-25T16:52:25.614Z,80.04
2022-09-25T16:54:55.087Z,80.78
2022-09-25T16:57:28.012Z,80.02
2022-09-25T16:59:55.034Z,80.70
2022-09-25T17:02:37.675Z,80.87
2022-09-25T17:05:16.149Z,81.51
2022-09-25T17:07:42.891Z,80.95
2022-09-25T17:10:12.951Z,81.08
2022-09-25T17:12:39.750Z,80.64
2022-09-25T17:15:10.861Z,80.27
2022-09-25T17:17:37.564Z,80.68
2022-09-25T17:20:04.893Z,80.77
2022-09-25T17:22:31.578Z,80.68
2022-09-25T17:25:02.369Z,80.45
2022-09-25T17:27:29.083Z,80.18
2022-09-25T17:29:55.904Z,80.47
2022-09-25T17:32:22.607Z,80.26
2022-09-25T17:34:50.428Z,80.25
2022-09-25T17:37:17.183Z,80.89
2022-09-25T17:39:43.888Z,81.50
2022-09-25T17:42:10.866Z,81.73
2022-09-25T17:44:37.636Z,82.09
2022-09-25T17:47:05.111Z,82.46
2022-09-25T17:49:32.592Z,82.87
2022-09-25T17:51:59.397Z,83.10
2022-09-25T17:54:28.280Z,83.22
2022-09-25T17:56:55.181Z,83.05
2022-09-25T17:59:22.421Z,82.30
2022-09-25T18:01:49.251Z,82.29
2022-09-25T18:04:22.916Z,81.34
2022-09-25T18:06:50.097Z,81.05
2022-09-25T18:09:17.470Z,81.14
2022-09-25T18:11:44.925Z,81.02
2022-09-25T18:14:13.812Z,79.79
2022-09-25T18:16:43.090Z,79.24
2022-09-25T18:19:38.876Z,79.77
2022-09-25T18:22:19.678Z,79.74
2022-09-25T18:24:57.332Z,79.77
2022-09-25T18:27:30.745Z,79.22
2022-09-25T18:29:58.338Z,79.18
2022-09-25T18:32:26.097Z,78.89
2022-09-25T18:34:53.859Z,79.34
2022-09-25T18:37:20.804Z,78.57
2022-09-25T18:39:48.506Z,78.38
2022-09-25T18:42:15.651Z,77.89
2022-09-25T18:44:43.249Z,77.46
2022-09-25T18:47:11.241Z,76.42
2022-09-25T18:49:38.102Z,76.23
2022-09-25T18:52:05.273Z,76.47
2022-09-25T18:54:32.036Z,76.47
2022-09-25T18:56:58.933Z,77.15
2022-09-25T18:59:26.754Z,75.86
2022-09-25T19:01:55.883Z,77.23
2022-09-25T19:04:23.370Z,77.42
2022-09-25T19:06:50.128Z,76.44
2022-09-25T19:09:17.578Z,76.35
2022-09-25T19:11:45.445Z,76.53
2022-09-25T19:14:15.035Z,77.01
2022-09-25T19:16:41.888Z,77.01
2022-09-25T19:19:08.929Z,77.09
2022-09-25T19:21:36.324Z,77.35
2022-09-25T19:24:03.487Z,77.18
2022-09-25T19:26:31.117Z,77.15
2022-09-25T19:28:57.948Z,77.47
2022-09-25T19:31:27.321Z,77.03
2022-09-25T19:33:55.510Z,77.90
2022-09-25T19:36:27.290Z,78.14
2022-09-25T19:38:54.733Z,77.60
2022-09-25T19:41:30.973Z,77.74
2022-09-25T19:44:00.870Z,78.33
2022-09-25T19:46:28.919Z,78.11
2022-09-25T19:48:56.128Z,78.22
2022-09-25T19:51:24.326Z,77.94
2022-09-25T19:53:51.973Z,77.41
2022-09-25T19:56:23.146Z,76.69
2022-09-25T19:58:51.156Z,77.63
2022-09-25T20:01:26.301Z,77.34
2022-09-25T20:03:55.715Z,77.53
2022-09-25T20:06:23.860Z,78.19
2022-09-25T20:08:57.082Z,78.25
2022-09-25T20:11:25.063Z,78.98
2022-09-25T20:13:52.874Z,79.19
2022-09-25T20:16:22.269Z,78.57
2022-09-25T20:18:50.880Z,78.58
2022-09-25T20:21:23.513Z,78.56
2022-09-25T20:23:58.126Z,78.06
2022-09-25T20:26:25.843Z,76.85
2022-09-25T20:28:55.625Z,77.21
2022-09-25T20:31:22.687Z,77.45
2022-09-25T20:33:49.545Z,75.69
2022-09-25T20:36:17.151Z,76.64
2022-09-25T20:38:45.442Z,76.91
2022-09-25T20:41:13.389Z,77.12
2022-09-25T20:43:41.313Z,77.83
2022-09-25T20:46:13.428Z,77.93
2022-09-25T20:48:44.997Z,77.94
2022-09-25T20:51:12.685Z,78.31
2022-09-25T20:53:40.032Z,78.76
2022-09-25T20:56:08.841Z,78.59
2022-09-25T20:58:36.688Z,78.04
2022-09-25T21:01:05.974Z,77.78
2022-09-25T21:03:34.565Z,78.54
2022-09-25T21:06:06.923Z,79.09
2022-09-25T21:08:34.215Z,79.04
2022-09-25T21:11:02.072Z,79.22
2022-09-25T21:13:30.285Z,79.84
2022-09-25T21:16:04.630Z,80.25
2022-09-25T21:18:35.473Z,80.63
2022-09-25T21:21:04.525Z,80.79
2022-09-25T21:23:31.502Z,81.26
2022-09-25T21:26:14.703Z,82.49
2022-09-25T21:28:43.608Z,82.58
2022-09-25T21:31:19.254Z,83.13
2022-09-25T21:33:46.572Z,83.95
2022-09-25T21:36:16.450Z,83.52
2022-09-25T21:38:43.611Z,84.44
2022-09-25T21:41:15.404Z,84.67
2022-09-25T21:43:43.254Z,85.40
2022-09-25T21:46:16.016Z,85.78
2022-09-25T21:48:52.937Z,85.97
2022-09-25T21:51:22.114Z,86.47
2022-09-25T21:53:49.324Z,86.37
2022-09-25T21:56:21.051Z,87.13
2022-09-25T21:58:47.789Z,87.43
2022-09-25T22:01:16.409Z,87.62
2022-09-25T22:03:47.486Z,87.96
2022-09-25T22:06:17.807Z,88.47
2022-09-25T22:08:46.797Z,88.78
2022-09-25T22:11:13.997Z,88.87
2022-09-25T22:13:43.957Z,88.72
2022-09-25T22:16:12.142Z,89.28
2022-09-25T22:18:44.514Z,89.75
2022-09-25T22:21:13.733Z,90.33
2022-09-25T22:23:40.450Z,90.84
2022-09-25T22:26:07.707Z,91.43
2022-09-25T22:28:35.853Z,92.16
2022-09-25T22:31:29.972Z,93.07
2022-09-25T22:34:01.153Z,93.28
2022-09-25T22:36:28.795Z,93.81
2022-09-25T22:38:55.862Z,93.14
2022-09-25T22:41:23.021Z,93.62
2022-09-25T22:43:51.825Z,94.35
2022-09-25T22:46:20.211Z,94.67
2022-09-25T22:48:47.075Z,95.63
2022-09-25T22:51:16.390Z,95.89
2022-09-25T22:53:43.491Z,96.16
2022-09-25T22:56:15.831Z,95.94
2022-09-25T22:58:47.097Z,96.49
2022-09-25T23:01:18.460Z,96.91
2022-09-25T23:03:45.113Z,97.41
2022-09-25T23:06:11.851Z,97.67
2022-09-25T23:08:38.733Z,98.74
2022-09-25T23:11:08.277Z,99.11
2022-09-25T23:13:36.480Z,100.00
2022-09-25T23:16:07.931Z,100.00
2022-09-25T23:18:38.097Z,100.00
2022-09-25T23:21:05.252Z,100.00
2022-09-25T23:23:32.478Z,100.00
2022-09-25T23:26:06.450Z,100.00
2022-09-25T23:28:38.429Z,100.00
2022-09-25T23:31:13.367Z,100.00
2022-09-25T23:33:41.071Z,100.00
2022-09-25T23:36:13.901Z,100.00
2022-09-25T23:38:40.607Z,100.00
2022-09-25T23:41:40.257Z,100.00
2022-09-25T23:44:09.838Z,100.00
2022-09-25T23:46:40.298Z,100.00
2022-09-25T23:49:07.442Z,100.00
2022-09-25T23:51:34.409Z,100.00
2022-09-25T23:54:02.008Z,100.00
2022-09-25T23:56:31.791Z,100.00
2022-09-25T23:59:01.415Z,100.00
